Time;durP1;ratioP1;P1;durP2;ratioP2;P2;SDS_P1;SDS_P2;PMS_P1;PMS_P2;Temp;Humidity;BMP_temperature;BMP_pressure;BME280_temperature;BME280_humidity;BME280_pressure;Samples;Min_cycle;Max_cycle;Signal;HPM_P1;HPM_P2
2023/10/26 00:01:33;;;;;;;64.28;30.80;;;10.30;99.90;;;;;;5013112;28;20211;-65
2023/10/26 00:03:59;;;;;;;70.28;32.97;;;10.40;99.90;;;;;;5013221;28;20176;-64
2023/10/26 00:06:25;;;;;;;72.22;32.53;;;10.30;99.90;;;;;;5015096;28;20658;-64
2023/10/26 00:08:51;;;;;;;72.68;34.78;;;10.20;99.90;;;;;;5016790;28;20211;-65
2023/10/26 00:11:17;;;;;;;76.32;33.97;;;10.20;99.90;;;;;;4998663;28;20246;-65
2023/10/26 00:13:42;;;;;;;68.47;34.10;;;10.20;99.90;;;;;;5016954;28;20186;-65
2023/10/26 00:16:08;;;;;;;70.50;34.50;;;10.20;99.90;;;;;;5016673;28;20211;-65
2023/10/26 00:18:34;;;;;;;75.45;34.72;;;10.20;99.90;;;;;;5016926;28;20332;-65
2023/10/26 00:21:00;;;;;;;83.80;37.85;;;10.20;99.90;;;;;;5016506;28;20195;-66
2023/10/26 00:23:27;;;;;;;82.40;36.28;;;10.20;99.90;;;;;;5016642;28;20176;-65
2023/10/26 00:25:53;;;;;;;71.05;34.72;;;10.20;99.90;;;;;;5016705;28;20218;-65
2023/10/26 00:28:19;;;;;;;73.68;32.47;;;10.20;99.90;;;;;;5016680;28;20191;-66
2023/10/26 00:30:45;;;;;;;72.78;33.58;;;10.20;99.90;;;;;;5016296;28;20596;-65
2023/10/26 00:33:11;;;;;;;70.30;33.15;;;10.20;99.90;;;;;;5016231;28;20176;-66
2023/10/26 00:35:37;;;;;;;69.80;35.20;;;10.20;99.90;;;;;;5016523;28;20187;-65
2023/10/26 00:38:03;;;;;;;78.32;35.92;;;10.20;99.90;;;;;;5016218;28;20200;-65
2023/10/26 00:40:28;;;;;;;72.25;35.65;;;10.10;99.90;;;;;;5016308;28;20298;-65
2023/10/26 00:43:01;;;;;;;74.60;35.78;;;10.10;99.90;;;;;;5015896;28;20164;-66
2023/10/26 00:45:34;;;;;;;74.65;34.47;;;10.20;99.90;;;;;;4998629;28;20215;-66
2023/10/26 00:48:00;;;;;;;72.07;33.80;;;10.20;99.90;;;;;;5015989;28;20263;-65
2023/10/26 00:50:26;;;;;;;57.25;30.45;;;10.20;99.90;;;;;;5016248;28;20200;-65
2023/10/26 00:52:53;;;;;;;61.75;31.33;;;10.10;99.90;;;;;;5016173;28;20541;-65
2023/10/26 00:55:19;;;;;;;63.58;31.25;;;10.10;99.90;;;;;;4998222;28;20215;-65
2023/10/26 00:57:45;;;;;;;61.53;29.73;;;10.10;99.90;;;;;;4997933;28;20211;-65
2023/10/26 01:00:11;;;;;;;58.72;30.20;;;10.10;99.90;;;;;;5015572;28;20552;-66
2023/10/26 01:02:38;;;;;;;53.88;29.63;;;10.10;99.90;;;;;;5016237;28;20171;-66
2023/10/26 01:05:04;;;;;;;51.45;29.30;;;10.10;99.90;;;;;;5015834;28;20218;-66
2023/10/26 01:07:30;;;;;;;51.03;28.52;;;10.10;99.90;;;;;;5015960;28;20238;-66
2023/10/26 01:09:57;;;;;;;50.17;29.35;;;10.10;99.90;;;;;;5015956;28;20184;-66
2023/10/26 01:12:23;;;;;;;54.78;30.08;;;10.10;99.90;;;;;;5015384;28;20624;-66
2023/10/26 01:14:49;;;;;;;55.43;30.20;;;10.10;99.90;;;;;;5015603;28;20179;-65
2023/10/26 01:17:15;;;;;;;53.00;30.45;;;10.00;99.90;;;;;;4997192;28;20262;-65
2023/10/26 01:19:47;;;;;;;53.67;30.33;;;10.00;99.90;;;;;;5016085;28;20180;-65
2023/10/26 01:22:13;;;;;;;53.55;29.13;;;9.90;99.90;;;;;;5015510;28;20275;-65
2023/10/26 01:24:39;;;;;;;50.07;28.20;;;10.00;99.90;;;;;;5015688;28;20608;-65
2023/10/26 01:27:05;;;;;;;51.45;29.30;;;9.90;99.90;;;;;;5015172;28;20250;-65
2023/10/26 01:29:32;;;;;;;53.75;28.73;;;9.90;99.90;;;;;;5015123;28;20557;-65
2023/10/26 01:31:58;;;;;;;48.60;28.23;;;9.90;99.90;;;;;;5015162;28;20204;-66
2023/10/26 01:34:24;;;;;;;48.70;28.05;;;9.90;99.90;;;;;;5015220;28;20246;-65
2023/10/26 01:36:50;;;;;;;47.30;26.98;;;9.90;99.90;;;;;;5014957;28;20598;-65
2023/10/26 01:39:17;;;;;;;50.40;26.80;;;9.90;99.90;;;;;;5015130;28;20238;-65
2023/10/26 01:41:43;;;;;;;43.45;26.45;;;9.90;99.90;;;;;;5014675;28;20250;-66
2023/10/26 01:44:09;;;;;;;51.65;27.67;;;9.90;99.90;;;;;;5014897;28;20283;-65
2023/10/26 01:46:35;;;;;;;47.10;27.10;;;9.90;99.90;;;;;;4997444;28;20263;-65
2023/10/26 01:49:01;;;;;;;43.50;28.25;;;9.80;99.90;;;;;;5015032;28;20184;-65
2023/10/26 01:51:27;;;;;;;40.85;26.17;;;9.80;99.90;;;;;;5014886;28;20250;-66
2023/10/26 01:53:53;;;;;;;50.70;28.20;;;9.80;99.90;;;;;;5014962;28;20204;-66
2023/10/26 01:56:18;;;;;;;46.22;27.23;;;9.80;99.90;;;;;;4996943;28;20184;-65
2023/10/26 01:58:45;;;;;;;42.60;27.38;;;9.80;99.90;;;;;;5014788;28;20245;-65
2023/10/26 02:01:11;;;;;;;34.78;24.15;;;9.80;99.90;;;;;;5014521;28;20215;-65
2023/10/26 02:03:36;;;;;;;43.70;26.15;;;9.70;99.90;;;;;;5014918;28;20180;-65
2023/10/26 02:06:05;;;;;;;45.28;25.85;;;9.70;99.90;;;;;;5014638;28;20640;-64
2023/10/26 02:08:33;;;;;;;42.90;27.17;;;9.70;99.90;;;;;;5014796;28;20184;-65
2023/10/26 02:10:58;;;;;;;44.63;26.43;;;9.70;99.90;;;;;;5014667;28;20191;-65
2023/10/26 02:13:24;;;;;;;43.80;25.27;;;9.70;99.90;;;;;;5014207;28;20183;-66
2023/10/26 02:15:50;;;;;;;40.40;24.23;;;9.70;99.90;;;;;;5015009;28;20175;-65
2023/10/26 02:18:16;;;;;;;44.92;25.65;;;9.80;99.90;;;;;;5014872;28;20203;-65
2023/10/26 02:20:42;;;;;;;38.42;25.02;;;9.80;99.90;;;;;;5014751;28;20207;-65
2023/10/26 02:23:08;;;;;;;38.63;23.88;;;9.80;99.90;;;;;;5014316;28;20203;-66
2023/10/26 02:25:33;;;;;;;40.20;24.88;;;9.80;99.90;;;;;;5014328;28;20629;-66
2023/10/26 02:27:59;;;;;;;41.65;26.42;;;9.80;99.90;;;;;;5013883;28;20254;-66
2023/10/26 02:30:25;;;;;;;35.53;23.63;;;9.80;99.90;;;;;;5013984;28;20720;-66
2023/10/26 02:32:51;;;;;;;36.03;24.00;;;9.70;99.90;;;;;;5014161;28;20254;-66
2023/10/26 02:35:20;;;;;;;36.95;24.00;;;9.70;99.90;;;;;;5014346;28;20254;-64
2023/10/26 02:37:46;;;;;;;39.45;24.98;;;9.70;99.90;;;;;;5014023;28;20287;-65
2023/10/26 02:40:12;;;;;;;41.08;24.85;;;9.70;99.90;;;;;;5013975;28;20222;-66
2023/10/26 02:42:38;;;;;;;35.20;22.52;;;9.70;99.90;;;;;;5013988;28;20179;-66
2023/10/26 02:45:08;;;;;;;34.73;22.90;;;9.60;99.90;;;;;;4996306;28;20230;-66
2023/10/26 02:47:34;;;;;;;32.67;22.52;;;9.70;99.90;;;;;;5014034;28;20191;-64
2023/10/26 02:50:00;;;;;;;31.52;22.00;;;9.60;99.90;;;;;;5013884;28;20176;-66
2023/10/26 02:52:26;;;;;;;27.47;19.03;;;9.60;99.90;;;;;;5013815;28;20199;-65
2023/10/26 02:54:51;;;;;;;29.70;20.30;;;9.60;99.90;;;;;;5013759;28;20210;-66
2023/10/26 02:57:17;;;;;;;28.20;19.67;;;9.60;99.90;;;;;;5013817;28;20199;-65
2023/10/26 02:59:43;;;;;;;27.35;19.30;;;9.60;99.90;;;;;;5013749;28;20179;-65
2023/10/26 03:02:09;;;;;;;27.52;18.20;;;9.60;99.90;;;;;;5013762;28;20714;-65
2023/10/26 03:04:35;;;;;;;26.80;18.63;;;9.60;99.90;;;;;;5013733;28;20194;-65
2023/10/26 03:07:01;;;;;;;26.75;19.33;;;9.60;99.90;;;;;;4996054;28;20200;-63
2023/10/26 03:09:28;;;;;;;26.50;19.17;;;9.60;99.90;;;;;;5013768;28;20234;-64
2023/10/26 03:11:55;;;;;;;27.95;19.73;;;9.50;99.90;;;;;;4995788;28;20203;-64
2023/10/26 03:14:21;;;;;;;25.77;18.77;;;9.50;99.90;;;;;;5013983;28;20176;-66
2023/10/26 03:16:47;;;;;;;25.93;18.83;;;9.50;99.90;;;;;;5013636;28;20199;-65
2023/10/26 03:19:13;;;;;;;24.42;18.58;;;9.60;99.90;;;;;;5013518;28;20235;-65
2023/10/26 03:21:39;;;;;;;24.00;18.43;;;9.60;99.90;;;;;;5013655;28;20196;-65
2023/10/26 03:24:05;;;;;;;27.23;19.83;;;9.60;99.90;;;;;;5013940;28;20179;-65
2023/10/26 03:26:31;;;;;;;30.00;19.55;;;9.60;99.90;;;;;;5013346;28;20176;-65
2023/10/26 03:28:57;;;;;;;28.23;21.15;;;9.60;99.90;;;;;;4995839;28;20600;-65
2023/10/26 03:31:23;;;;;;;28.23;20.00;;;9.60;99.90;;;;;;5013441;28;20688;-65
2023/10/26 03:33:49;;;;;;;29.75;21.25;;;9.60;99.90;;;;;;5013470;28;20176;-65
2023/10/26 03:36:16;;;;;;;27.13;20.00;;;9.60;99.90;;;;;;5013379;28;20187;-65
2023/10/26 03:38:43;;;;;;;29.10;21.25;;;9.70;99.90;;;;;;5013532;28;20614;-68
2023/10/26 03:41:09;;;;;;;28.97;19.93;;;9.70;99.90;;;;;;5015181;28;20188;-66
2023/10/26 03:43:35;;;;;;;26.55;20.30;;;9.70;99.90;;;;;;5017245;28;20487;-65
2023/10/26 03:46:01;;;;;;;28.13;20.25;;;9.70;99.90;;;;;;5017293;28;20199;-64
2023/10/26 03:48:27;;;;;;;31.30;20.98;;;9.70;99.90;;;;;;5017405;28;20176;-65
2023/10/26 03:50:53;;;;;;;32.47;22.33;;;9.60;99.90;;;;;;4999619;28;20287;-65
2023/10/26 03:53:19;;;;;;;31.90;22.97;;;9.60;99.90;;;;;;5017711;28;20309;-65
2023/10/26 03:55:44;;;;;;;32.00;22.13;;;9.60;99.90;;;;;;4999498;28;20176;-65
2023/10/26 03:58:15;;;;;;;30.40;21.87;;;9.60;99.90;;;;;;5016733;28;20641;-65
2023/10/26 04:00:41;;;;;;;35.25;25.02;;;9.70;99.90;;;;;;5017357;28;20208;-65
2023/10/26 04:03:07;;;;;;;36.55;22.50;;;9.60;99.90;;;;;;4999387;28;20630;-64
2023/10/26 04:05:33;;;;;;;33.03;23.10;;;9.60;99.90;;;;;;5016977;28;20187;-64
2023/10/26 04:08:02;;;;;;;34.40;24.00;;;9.60;99.90;;;;;;4999192;28;20183;-64
2023/10/26 04:10:28;;;;;;;31.27;21.67;;;9.60;99.90;;;;;;5017083;28;20199;-64
2023/10/26 04:12:54;;;;;;;30.40;22.00;;;9.60;99.90;;;;;;5016816;28;20239;-64
2023/10/26 04:15:20;;;;;;;31.30;21.97;;;9.60;99.90;;;;;;4999025;28;20187;-64
2023/10/26 04:17:46;;;;;;;31.27;22.40;;;9.60;99.90;;;;;;5017077;28;20203;-64
2023/10/26 04:20:12;;;;;;;30.48;22.80;;;9.60;99.90;;;;;;5016824;28;20172;-65
2023/10/26 04:22:38;;;;;;;29.58;22.20;;;9.60;99.90;;;;;;5016579;28;20219;-64
2023/10/26 04:25:04;;;;;;;34.83;24.20;;;9.60;99.90;;;;;;5016996;28;20573;-64
2023/10/26 04:27:33;;;;;;;37.25;25.20;;;9.60;99.90;;;;;;4998728;28;20247;-63
2023/10/26 04:29:59;;;;;;;32.17;23.35;;;9.60;99.90;;;;;;5016294;28;20203;-65
2023/10/26 04:32:25;;;;;;;33.20;23.52;;;9.60;99.90;;;;;;5016299;28;20206;-65
2023/10/26 04:34:51;;;;;;;31.98;23.85;;;9.60;99.90;;;;;;4998765;28;20196;-64
2023/10/26 04:37:17;;;;;;;36.65;24.90;;;9.60;99.90;;;;;;5016315;28;20206;-65
2023/10/26 04:39:45;;;;;;;37.28;25.10;;;9.60;99.90;;;;;;5016314;28;20175;-64
2023/10/26 04:42:12;;;;;;;36.00;26.65;;;9.60;99.90;;;;;;5015928;28;20192;-64
2023/10/26 04:44:39;;;;;;;36.50;26.45;;;9.60;99.90;;;;;;5016129;28;20195;-65
2023/10/26 04:47:04;;;;;;;35.40;24.33;;;9.60;99.90;;;;;;5016032;28;20226;-64
2023/10/26 04:49:30;;;;;;;41.35;27.08;;;9.60;99.90;;;;;;5016145;28;20183;-64
2023/10/26 04:51:56;;;;;;;36.10;25.30;;;9.60;99.90;;;;;;5014993;28;20271;-64
2023/10/26 04:54:22;;;;;;;39.47;26.23;;;9.60;99.90;;;;;;5014682;28;20703;-65
2023/10/26 04:56:47;;;;;;;37.03;25.27;;;9.50;99.90;;;;;;5015601;28;20180;-64
2023/10/26 04:59:13;;;;;;;39.83;27.17;;;9.50;99.90;;;;;;5015966;28;20180;-65
2023/10/26 05:01:39;;;;;;;41.70;25.83;;;9.50;99.90;;;;;;5010527;28;20214;-65
2023/10/26 05:04:05;;;;;;;42.60;27.98;;;9.50;99.90;;;;;;5035778;28;20180;-65
2023/10/26 05:06:32;;;;;;;37.47;24.80;;;9.50;99.90;;;;;;5035555;28;20550;-65
2023/10/26 05:08:58;;;;;;;38.33;26.02;;;9.60;99.90;;;;;;5035468;28;20179;-64
2023/10/26 05:11:24;;;;;;;39.05;27.40;;;9.50;99.90;;;;;;5035268;28;20601;-64
2023/10/26 05:13:52;;;;;;;36.70;26.27;;;9.50;99.90;;;;;;5034932;28;20167;-64
2023/10/26 05:16:18;;;;;;;41.70;28.13;;;9.50;99.90;;;;;;5035081;28;20209;-65
2023/10/26 05:18:44;;;;;;;42.35;25.83;;;9.50;99.90;;;;;;5034983;28;20294;-65
2023/10/26 05:21:10;;;;;;;43.33;26.98;;;9.60;99.90;;;;;;5035003;28;20195;-65
2023/10/26 05:23:37;;;;;;;38.03;24.80;;;9.60;99.90;;;;;;5017234;28;20565;-65
2023/10/26 05:26:03;;;;;;;39.55;25.58;;;9.60;99.90;;;;;;5034872;28;20195;-64
2023/10/26 05:28:29;;;;;;;44.13;27.05;;;9.50;99.90;;;;;;5034555;28;20233;-64
2023/10/26 05:30:55;;;;;;;37.72;25.30;;;9.50;99.90;;;;;;5016907;28;20285;-64
2023/10/26 05:33:21;;;;;;;43.55;27.30;;;9.50;99.90;;;;;;5035007;28;20263;-64
2023/10/26 05:35:46;;;;;;;44.20;27.93;;;9.50;99.90;;;;;;5034662;28;20298;-65
2023/10/26 05:38:14;;;;;;;43.88;27.90;;;9.50;99.90;;;;;;5034615;28;20206;-64
2023/10/26 05:40:57;;;;;;;44.65;28.50;;;9.50;99.90;;;;;;5034544;28;20683;-64
2023/10/26 05:43:23;;;;;;;43.65;28.50;;;9.50;99.90;;;;;;5034246;28;20217;-65
2023/10/26 05:45:49;;;;;;;42.55;27.27;;;9.50;99.90;;;;;;5035089;28;20164;-64
2023/10/26 05:48:16;;;;;;;38.87;25.40;;;9.50;99.90;;;;;;5034993;28;20175;-65
2023/10/26 05:50:43;;;;;;;43.58;26.63;;;9.50;99.90;;;;;;5016533;28;20199;-65
2023/10/26 05:53:10;;;;;;;43.50;27.50;;;9.60;99.90;;;;;;5034440;28;20163;-66
2023/10/26 05:55:36;;;;;;;42.33;27.40;;;9.60;99.90;;;;;;5034291;28;20182;-65
2023/10/26 05:58:03;;;;;;;39.47;25.55;;;9.60;99.90;;;;;;5033871;28;20237;-65
2023/10/26 06:00:29;;;;;;;43.08;28.85;;;9.60;99.90;;;;;;5031105;28;20214;-65
2023/10/26 06:02:55;;;;;;;41.55;26.55;;;9.60;99.90;;;;;;4996697;28;20176;-64
2023/10/26 06:05:21;;;;;;;42.63;28.13;;;9.60;99.90;;;;;;5014137;28;20645;-65
2023/10/26 06:07:46;;;;;;;45.42;28.63;;;9.60;99.90;;;;;;5014356;28;20183;-63
2023/10/26 06:10:12;;;;;;;46.40;28.95;;;9.60;99.90;;;;;;5014349;28;20183;-63
2023/10/26 06:12:38;;;;;;;38.60;25.35;;;9.60;99.90;;;;;;4996418;28;20203;-64
2023/10/26 06:15:04;;;;;;;44.25;27.85;;;9.60;99.90;;;;;;5014368;28;20176;-64
2023/10/26 06:17:30;;;;;;;42.63;27.90;;;9.50;99.90;;;;;;5014204;28;20549;-64
2023/10/26 06:19:56;;;;;;;43.28;28.52;;;9.60;99.90;;;;;;5014535;28;20179;-64
2023/10/26 06:22:22;;;;;;;42.00;27.65;;;9.60;99.90;;;;;;5014181;28;20203;-64
2023/10/26 06:24:48;;;;;;;43.30;28.67;;;9.60;99.90;;;;;;5014797;28;20539;-65
2023/10/26 06:27:14;;;;;;;43.50;28.05;;;9.60;99.90;;;;;;5013982;28;20183;-65
2023/10/26 06:29:41;;;;;;;45.67;29.97;;;9.60;99.90;;;;;;5013975;28;20699;-65
2023/10/26 06:32:07;;;;;;;43.22;27.80;;;9.60;99.90;;;;;;4996293;28;20704;-64
2023/10/26 06:34:33;;;;;;;45.10;30.00;;;9.60;99.90;;;;;;5014115;28;20180;-65
2023/10/26 06:36:59;;;;;;;46.28;29.40;;;9.60;99.90;;;;;;5014012;28;20238;-64
2023/10/26 06:39:25;;;;;;;45.05;29.75;;;9.50;99.90;;;;;;5013738;28;20676;-63
2023/10/26 06:41:50;;;;;;;41.55;28.13;;;9.50;99.90;;;;;;5013704;28;20691;-64
2023/10/26 06:44:16;;;;;;;46.15;28.98;;;9.60;99.90;;;;;;5013453;28;20192;-64
2023/10/26 06:46:42;;;;;;;47.33;31.80;;;9.50;99.90;;;;;;5013963;28;20172;-64
2023/10/26 06:49:08;;;;;;;51.88;30.70;;;9.60;99.90;;;;;;5014207;28;20179;-64
2023/10/26 06:51:34;;;;;;;48.40;30.90;;;9.60;99.90;;;;;;5013487;28;20196;-64
2023/10/26 06:53:59;;;;;;;52.75;30.65;;;9.60;99.90;;;;;;5013729;28;20184;-64
2023/10/26 06:56:25;;;;;;;53.38;30.92;;;9.60;99.90;;;;;;5013574;28;20184;-64
2023/10/26 06:58:51;;;;;;;53.72;32.85;;;9.60;99.90;;;;;;5013053;28;20203;-64
2023/10/26 07:01:17;;;;;;;57.92;34.03;;;9.60;99.90;;;;;;5013447;28;20286;-64
2023/10/26 07:03:42;;;;;;;53.85;34.30;;;9.50;99.90;;;;;;5014091;28;20168;-64
2023/10/26 07:06:08;;;;;;;55.28;33.55;;;9.60;99.90;;;;;;5013420;28;20175;-64
2023/10/26 07:08:34;;;;;;;54.17;33.78;;;9.60;99.90;;;;;;5013391;28;20633;-64
2023/10/26 07:11:05;;;;;;;61.88;35.75;;;9.60;99.90;;;;;;5013589;28;20203;-64
2023/10/26 07:13:31;;;;;;;59.00;34.90;;;9.60;99.90;;;;;;5013297;28;20170;-64
2023/10/26 07:16:00;;;;;;;55.30;33.63;;;9.60;99.90;;;;;;5012706;28;20590;-64
2023/10/26 07:18:26;;;;;;;58.75;34.83;;;9.60;99.90;;;;;;5013163;28;20203;-64
2023/10/26 07:20:53;;;;;;;58.22;36.85;;;9.50;99.90;;;;;;5013444;28;20621;-64
2023/10/26 07:23:19;;;;;;;51.70;34.53;;;9.60;99.90;;;;;;5013378;28;20196;-64
2023/10/26 07:25:44;;;;;;;56.95;34.40;;;9.60;99.90;;;;;;5013264;28;20207;-64
2023/10/26 07:28:11;;;;;;;58.83;35.15;;;9.60;99.90;;;;;;5012912;28;20188;-64
2023/10/26 07:30:42;;;;;;;54.17;32.90;;;9.60;99.90;;;;;;5013184;28;20294;-64
2023/10/26 07:33:07;;;;;;;61.13;36.53;;;9.60;99.90;;;;;;5013182;28;20679;-64
2023/10/26 07:35:42;;;;;;;64.97;37.50;;;9.60;99.90;;;;;;5013161;28;20180;-64
2023/10/26 07:38:09;;;;;;;67.70;38.50;;;9.60;99.90;;;;;;5013389;28;20191;-64
2023/10/26 07:40:37;;;;;;;66.90;39.00;;;9.60;99.90;;;;;;4995423;28;20192;-64
2023/10/26 07:43:03;;;;;;;66.55;36.22;;;9.60;99.90;;;;;;5012806;28;20578;-64
2023/10/26 07:45:29;;;;;;;69.88;38.35;;;9.60;99.90;;;;;;5013081;28;20544;-64
2023/10/26 07:47:56;;;;;;;70.18;38.47;;;9.60;99.90;;;;;;5013307;28;20176;-64
2023/10/26 07:50:22;;;;;;;75.43;41.13;;;9.60;99.90;;;;;;5012949;28;20242;-64
2023/10/26 07:52:48;;;;;;;70.65;39.13;;;9.60;99.90;;;;;;5013313;28;20175;-64
2023/10/26 07:55:14;;;;;;;78.50;41.60;;;9.60;99.90;;;;;;5012900;28;20599;-64
2023/10/26 07:57:43;;;;;;;76.22;40.17;;;9.60;99.90;;;;;;5012616;28;20287;-64
2023/10/26 08:00:11;;;;;;;83.00;42.07;;;9.60;99.90;;;;;;5012637;28;20175;-63
2023/10/26 08:02:37;;;;;;;78.40;40.47;;;9.50;99.90;;;;;;4995407;28;20275;-64
2023/10/26 08:05:03;;;;;;;76.87;39.93;;;9.60;99.90;;;;;;5013127;28;20695;-64
2023/10/26 08:07:29;;;;;;;78.38;40.65;;;9.60;99.90;;;;;;5012977;28;20180;-64
2023/10/26 08:09:56;;;;;;;75.18;40.08;;;9.50;99.90;;;;;;5013093;28;20267;-64
2023/10/26 08:12:23;;;;;;;84.72;41.80;;;9.60;99.90;;;;;;5012704;28;20196;-64
2023/10/26 08:14:51;;;;;;;86.13;44.13;;;9.60;99.90;;;;;;4995256;28;20254;-64
2023/10/26 08:17:17;;;;;;;81.72;43.38;;;9.60;99.90;;;;;;5012899;28;20676;-64
2023/10/26 08:19:42;;;;;;;80.85;40.97;;;9.60;99.90;;;;;;5012790;28;20172;-64
2023/10/26 08:22:10;;;;;;;83.53;43.63;;;9.60;99.90;;;;;;5012711;28;20192;-64
2023/10/26 08:24:36;;;;;;;92.63;44.27;;;9.60;99.90;;;;;;5012766;28;20204;-64
2023/10/26 08:27:03;;;;;;;94.22;44.30;;;9.60;99.90;;;;;;5014104;28;20179;-64
2023/10/26 08:29:29;;;;;;;94.47;46.65;;;9.60;99.90;;;;;;4998428;28;20188;-64
2023/10/26 08:31:55;;;;;;;91.07;44.38;;;9.60;99.90;;;;;;5016092;28;20245;-64
2023/10/26 08:34:21;;;;;;;89.70;43.53;;;9.60;99.90;;;;;;5016273;28;20179;-64
2023/10/26 08:36:47;;;;;;;86.50;44.53;;;9.60;99.90;;;;;;5015979;28;20182;-63
2023/10/26 08:39:13;;;;;;;86.35;43.05;;;9.60;99.90;;;;;;4998503;28;20302;-64
2023/10/26 08:41:46;;;;;;;97.00;50.17;;;9.60;99.90;;;;;;5016000;28;20286;-62
2023/10/26 08:44:12;;;;;;;88.28;44.65;;;9.70;99.90;;;;;;5015673;28;20503;-62
2023/10/26 08:46:38;;;;;;;87.63;43.38;;;9.70;99.90;;;;;;5016366;28;20172;-62
2023/10/26 08:49:08;;;;;;;91.28;47.25;;;9.80;99.90;;;;;;5016050;28;20274;-61
2023/10/26 08:51:33;;;;;;;96.10;46.50;;;9.70;99.90;;;;;;5015861;28;20235;-62
2023/10/26 08:54:00;;;;;;;87.13;44.40;;;9.80;99.90;;;;;;5015702;28;20535;-62
2023/10/26 08:56:28;;;;;;;91.25;45.85;;;9.90;99.90;;;;;;4998119;28;20180;-62
2023/10/26 08:59:01;;;;;;;92.72;44.55;;;9.80;99.90;;;;;;5015250;28;20199;-62
2023/10/26 09:01:27;;;;;;;89.53;44.40;;;9.90;99.90;;;;;;5015514;28;20220;-61
2023/10/26 09:03:53;;;;;;;87.13;44.63;;;9.80;99.90;;;;;;5015716;28;20519;-61
2023/10/26 09:06:18;;;;;;;89.05;46.67;;;9.80;99.90;;;;;;5015523;28;20653;-62
2023/10/26 09:09:00;;;;;;;85.95;44.95;;;9.80;99.90;;;;;;5015482;28;20222;-62
2023/10/26 09:11:26;;;;;;;76.95;44.05;;;9.80;99.90;;;;;;4997814;28;20231;-61
2023/10/26 09:13:55;;;;;;;84.00;44.72;;;9.80;99.90;;;;;;5015302;28;20686;-62
2023/10/26 09:16:35;;;;;;;93.90;47.40;;;9.80;99.90;;;;;;5015403;28;20203;-61
2023/10/26 09:19:01;;;;;;;80.18;42.03;;;9.80;99.90;;;;;;5015364;28;20668;-62
2023/10/26 09:21:27;;;;;;;82.18;42.92;;;9.80;99.90;;;;;;5015373;28;20250;-62
2023/10/26 09:23:53;;;;;;;82.53;45.22;;;9.70;99.90;;;;;;5015127;28;20164;-62
2023/10/26 09:26:20;;;;;;;79.80;43.08;;;9.70;99.90;;;;;;5015379;28;20211;-64
2023/10/26 09:28:53;;;;;;;77.07;40.97;;;9.70;99.90;;;;;;5014762;28;20184;-64
2023/10/26 09:31:20;;;;;;;71.30;39.05;;;9.70;99.90;;;;;;5015067;28;20217;-63
2023/10/26 09:33:47;;;;;;;74.40;41.53;;;9.80;99.90;;;;;;5015476;28;20711;-64
2023/10/26 09:36:15;;;;;;;77.33;41.67;;;9.70;99.90;;;;;;5015368;28;20186;-64
2023/10/26 09:38:42;;;;;;;78.23;41.60;;;9.80;99.90;;;;;;5014149;28;20218;-64
2023/10/26 09:41:11;;;;;;;73.00;40.15;;;9.80;99.90;;;;;;4997236;28;20287;-64
2023/10/26 09:43:40;;;;;;;68.78;39.72;;;9.90;99.90;;;;;;5014555;28;20597;-63
2023/10/26 09:46:17;;;;;;;67.70;36.33;;;9.90;99.90;;;;;;5015006;28;20255;-64
2023/10/26 09:48:43;;;;;;;63.63;36.10;;;9.90;99.90;;;;;;5015009;28;20557;-64
2023/10/26 09:51:11;;;;;;;66.57;35.90;;;9.90;99.90;;;;;;5014561;28;20192;-64
2023/10/26 09:53:41;;;;;;;60.88;34.72;;;9.90;99.90;;;;;;5014878;28;20254;-64
2023/10/26 09:56:17;;;;;;;57.72;33.08;;;9.90;99.90;;;;;;5014529;28;20206;-64
2023/10/26 09:58:43;;;;;;;57.90;32.73;;;9.80;99.90;;;;;;4996548;28;20211;-64
2023/10/26 10:01:35;;;;;;;58.25;31.45;;;9.80;99.90;;;;;;5014285;28;20557;-64
2023/10/26 10:04:02;;;;;;;55.35;31.02;;;9.80;99.90;;;;;;5014384;28;20179;-64
2023/10/26 10:06:53;;;;;;;51.47;30.45;;;9.90;99.90;;;;;;5014715;28;20179;-64
2023/10/26 10:09:24;;;;;;;50.65;30.10;;;9.80;99.90;;;;;;5014325;28;20176;-64
2023/10/26 10:12:15;;;;;;;54.75;40.20;;;9.80;99.90;;;;;;4996629;28;20270;-64
2023/10/26 10:14:51;;;;;;;49.03;28.67;;;9.90;99.90;;;;;;5008300;28;20644;-64
2023/10/26 10:17:21;;;;;;;46.35;28.15;;;9.90;99.90;;;;;;5014122;28;20196;-64
2023/10/26 10:19:48;;;;;;;45.80;26.45;;;10.00;99.90;;;;;;5014165;28;20164;-64
2023/10/26 10:22:36;;;;;;;35.75;24.13;;;10.10;99.90;;;;;;5014074;28;20187;-64
2023/10/26 10:25:03;;;;;;;35.10;23.08;;;10.20;99.90;;;;;;5014024;28;20212;-64
2023/10/26 10:27:29;;;;;;;33.60;22.23;;;10.20;99.90;;;;;;5014058;28;20182;-64
2023/10/26 10:30:02;;;;;;;35.47;23.45;;;10.30;99.90;;;;;;5013730;28;20184;-64
2023/10/26 10:32:49;;;;;;;36.08;23.63;;;10.40;99.90;;;;;;5014210;28;20160;-64
2023/10/26 10:35:45;;;;;;;36.15;23.05;;;10.50;99.90;;;;;;5014052;28;20258;-64
2023/10/26 10:38:14;;;;;;;33.78;20.92;;;10.60;99.90;;;;;;5014383;28;20192;-64
2023/10/26 10:41:00;;;;;;;31.77;21.50;;;10.70;99.90;;;;;;5013705;28;20231;-64
2023/10/26 10:43:37;;;;;;;37.03;21.65;;;10.80;99.90;;;;;;4989281;28;20214;-64
2023/10/26 10:46:12;;;;;;;30.83;20.98;;;10.90;99.90;;;;;;5013706;28;20172;-64
2023/10/26 10:49:01;;;;;;;30.73;21.00;;;10.90;99.90;;;;;;5013736;28;20175;-64
2023/10/26 10:51:45;;;;;;;31.52;19.58;;;11.00;99.90;;;;;;5012640;28;20683;-64
2023/10/26 10:54:12;;;;;;;29.85;21.15;;;11.20;99.90;;;;;;5014021;28;20168;-64
2023/10/26 10:56:40;;;;;;;28.85;19.10;;;11.30;99.90;;;;;;5013709;28;20168;-64
2023/10/26 10:59:18;;;;;;;29.05;19.52;;;11.50;99.90;;;;;;4995541;28;20281;-64
2023/10/26 11:01:44;;;;;;;28.52;19.15;;;11.80;99.90;;;;;;5013264;28;20287;-64
2023/10/26 11:04:13;;;;;;;25.95;19.35;;;12.00;99.90;;;;;;5013453;28;20319;-64
2023/10/26 11:06:46;;;;;;;24.10;17.20;;;12.00;99.90;;;;;;5013389;28;20164;-64
2023/10/26 11:09:23;;;;;;;26.65;17.73;;;11.90;99.90;;;;;;4995872;28;20176;-64
2023/10/26 11:11:49;;;;;;;23.98;17.80;;;11.70;99.90;;;;;;5013428;28;20198;-65
2023/10/26 11:14:17;;;;;;;22.52;16.65;;;11.60;99.90;;;;;;5013129;28;20550;-64
2023/10/26 11:16:43;;;;;;;23.83;17.08;;;11.50;99.90;;;;;;5013426;28;20172;-64
2023/10/26 11:19:08;;;;;;;22.58;17.48;;;11.40;99.90;;;;;;5013376;28;20226;-64
2023/10/26 11:21:34;;;;;;;29.88;18.27;;;11.40;99.90;;;;;;5013264;28;20660;-64
2023/10/26 11:24:01;;;;;;;22.58;17.33;;;11.50;99.90;;;;;;5013504;28;20184;-64
2023/10/26 11:26:27;;;;;;;24.08;16.73;;;11.60;99.90;;;;;;5013180;28;20179;-64
2023/10/26 11:28:53;;;;;;;24.48;17.20;;;11.60;99.90;;;;;;5012843;28;20210;-64
2023/10/26 11:31:43;;;;;;;25.67;18.00;;;11.60;99.90;;;;;;5013197;28;20204;-64
2023/10/26 11:34:10;;;;;;;23.55;17.25;;;11.60;99.90;;;;;;5013150;28;20180;-64
2023/10/26 11:36:44;;;;;;;24.45;18.10;;;11.60;99.90;;;;;;5013240;28;20226;-64
2023/10/26 11:39:10;;;;;;;26.95;18.65;;;11.70;99.90;;;;;;5013440;28;20199;-64
2023/10/26 11:41:35;;;;;;;27.20;18.08;;;11.90;99.90;;;;;;5013109;28;20198;-64
2023/10/26 11:44:01;;;;;;;26.42;18.40;;;12.10;99.90;;;;;;5013112;28;20172;-64
2023/10/26 11:46:35;;;;;;;26.80;18.58;;;12.40;99.90;;;;;;5013085;28;20172;-64
2023/10/26 11:49:03;;;;;;;24.92;17.60;;;12.80;99.90;;;;;;5013362;28;20242;-64
2023/10/26 11:51:30;;;;;;;20.83;15.55;;;13.10;99.90;;;;;;5013171;28;20222;-64
2023/10/26 11:53:57;;;;;;;21.90;16.80;;;12.90;99.90;;;;;;4995426;28;20204;-64
2023/10/26 11:56:23;;;;;;;18.55;14.90;;;12.70;99.90;;;;;;5012945;28;20187;-64
2023/10/26 11:58:49;;;;;;;22.25;17.42;;;12.60;99.90;;;;;;4995008;28;20577;-64
2023/10/26 12:01:15;;;;;;;19.70;15.20;;;12.70;99.90;;;;;;5004521;28;20215;-64
2023/10/26 12:03:44;;;;;;;21.73;16.48;;;12.90;99.90;;;;;;5036450;28;20230;-64
2023/10/26 12:06:11;;;;;;;21.17;16.58;;;13.00;99.90;;;;;;5036354;28;20225;-63
2023/10/26 12:08:37;;;;;;;20.15;14.43;;;12.80;99.90;;;;;;5018592;28;20190;-63
2023/10/26 12:11:04;;;;;;;20.17;14.35;;;12.50;99.90;;;;;;5036377;28;20202;-63
2023/10/26 12:13:32;;;;;;;19.92;13.98;;;12.10;99.90;;;;;;5035992;28;20194;-63
2023/10/26 12:15:58;;;;;;;19.60;14.00;;;11.90;99.90;;;;;;5036191;28;20213;-64
2023/10/26 12:18:23;;;;;;;17.73;12.70;;;11.70;99.90;;;;;;5036084;28;20285;-64
2023/10/26 12:20:49;;;;;;;17.65;13.98;;;11.60;99.90;;;;;;5036360;28;20214;-64
2023/10/26 12:23:15;;;;;;;20.15;14.80;;;11.50;99.90;;;;;;5036024;28;20215;-64
2023/10/26 12:25:42;;;;;;;20.40;13.45;;;11.50;99.90;;;;;;5018196;28;20209;-64
2023/10/26 12:28:07;;;;;;;18.27;13.40;;;11.50;99.90;;;;;;5036122;28;20233;-64
2023/10/26 12:30:33;;;;;;;20.88;14.32;;;11.50;99.90;;;;;;5035836;28;20222;-63
2023/10/26 12:32:59;;;;;;;20.15;14.23;;;11.60;99.90;;;;;;5036422;28;20701;-64
2023/10/26 12:35:25;;;;;;;20.60;15.27;;;11.60;99.90;;;;;;5035777;28;20270;-63